Terminal Aerodrome Forecast
Issued by NWS

Home | Current Version | Previous Version | Text Only | Print | Product List | Glossary On
Versions: 1 2 3 4 5 6 7 8 9 10 11 12 13 14 15 16 17 18
000
FTUS46 KSEW 240300 AAA
TAFHQM
TAF AMD
KHQM 240308Z 2403/2424 20013G20KT 3SM -RA SCT020 BKN035 OVC050
      TEMPO 2403/2405 1 1/2SM RA BR SCT015 OVC030
     FM240500 19006KT P6SM VCSH OVC015
     FM241000 21010G18KT P6SM VCSH OVC015
     FM241400 24009KT P6SM OVC015
     FM242100 24011KT P6SM OVC040=

USA.gov is the U.S. government's official web portal to all federal, state and local government web resources and services.